Time;durP1;ratioP1;P1;durP2;ratioP2;P2;SDS_P1;SDS_P2;PMS_P1;PMS_P2;Temp;Humidity;BMP_temperature;BMP_pressure;BME280_temperature;BME280_humidity;BME280_pressure;Samples;Min_cycle;Max_cycle;Signal;HPM_P1;HPM_P2
2021/08/11 00:02:40;;;;;;;5.38;3.58;;;13.90;99.90;;;;;;6007335;23;20339;-83
2021/08/11 00:05:45;;;;;;;;;;;;;;;;;;;;;
2021/08/11 00:08:39;;;;;;;7.50;3.55;;;13.90;99.90;;;;;;5999819;23;20030;-83
2021/08/11 00:11:06;;;;;;;7.32;4.00;;;13.80;99.90;;;;;;6001213;23;20017;-80
2021/08/11 00:14:05;;;;;;;4.85;3.28;;;13.80;99.90;;;;;;6092704;23;20126;-83
2021/08/11 00:17:00;;;;;;;;;;;;;;;;;;;;;
2021/08/11 00:20:24;;;;;;;9.13;2.92;;;13.80;99.90;;;;;;5995259;23;20031;-81
2021/08/11 00:26:21;;;;;;;4.95;3.30;;;13.70;99.90;;;;;;5955514;23;20076;-83
2021/08/11 00:28:53;;;;;;;5.57;3.58;;;13.70;99.90;;;;;;5954426;23;20481;-83
2021/08/11 00:31:24;;;;;;;5.72;3.55;;;13.60;99.90;;;;;;5999867;23;20019;-84
2021/08/11 00:33:54;;;;;;;9.25;4.25;;;13.60;99.90;;;;;;6028845;23;20435;-80
2021/08/11 00:36:44;;;;;;;8.07;4.93;;;13.50;99.90;;;;;;6039560;23;20047;-83
2021/08/11 00:39:16;;;;;;;9.32;4.85;;;13.60;99.90;;;;;;6165329;22;20086;-83
2021/08/11 00:42:19;;;;;;;;;;;;;;;;;;;;;
2021/08/11 00:45:13;;;;;;;;;;;;;;;;;;;;;
2021/08/11 00:48:04;;;;;;;6.90;4.95;;;13.50;99.90;;;;;;6020243;23;20464;-83
2021/08/11 00:50:37;;;;;;;12.82;5.32;;;13.50;99.90;;;;;;6039831;23;20030;-81
2021/08/11 00:53:28;;;;;;;7.05;5.35;;;13.50;99.90;;;;;;6021530;23;20043;-83
2021/08/11 00:56:05;;;;;;;9.50;5.05;;;13.50;99.90;;;;;;5993941;23;20043;-83
2021/08/11 00:58:40;;;;;;;6.60;4.20;;;13.40;99.90;;;;;;6021590;23;20030;-83
2021/08/11 01:01:18;;;;;;;;;;;;;;;;;;;;;
2021/08/11 01:03:46;;;;;;;9.48;4.60;;;13.40;99.90;;;;;;6013894;23;20122;-82
2021/08/11 01:06:18;;;;;;;6.68;4.57;;;13.30;99.90;;;;;;6049293;23;20029;-82
2021/08/11 01:08:50;;;;;;;10.80;5.45;;;13.30;99.90;;;;;;6152228;23;20018;-81
2021/08/11 01:11:39;;;;;;;;;;;;;;;;;;;;;
2021/08/11 01:14:37;;;;;;;;;;;;;;;;;;;;;
2021/08/11 01:17:10;;;;;;;9.00;4.75;;;13.20;99.90;;;;;;6272505;22;19937;-83
2021/08/11 01:20:03;;;;;;;7.75;4.15;;;13.20;99.90;;;;;;6230572;22;20019;-82
2021/08/11 01:22:56;;;;;;;8.07;4.38;;;13.20;99.90;;;;;;6209462;22;20019;-81
2021/08/11 01:25:59;;;;;;;5.82;3.90;;;13.20;99.90;;;;;;6245077;22;20470;-83
2021/08/11 01:29:02;;;;;;;6.50;4.03;;;13.10;99.90;;;;;;6240065;22;20023;-83
2021/08/11 01:31:48;;;;;;;7.32;4.32;;;13.10;99.90;;;;;;6229538;22;20098;-82
2021/08/11 01:34:37;;;;;;;;;;;;;;;;;;;;;
2021/08/11 01:37:23;;;;;;;8.05;4.80;;;13.10;99.90;;;;;;6288976;22;20086;-83
2021/08/11 01:40:16;;;;;;;6.90;4.03;;;13.00;99.90;;;;;;6235170;22;20022;-83
2021/08/11 01:43:03;;;;;;;8.52;4.00;;;13.00;99.90;;;;;;6208816;22;20019;-83
2021/08/11 01:45:50;;;;;;;;;;;;;;;;;;;;;
2021/08/11 01:48:42;;;;;;;11.13;5.30;;;13.00;99.90;;;;;;6251671;22;20423;-82
2021/08/11 01:51:22;;;;;;;7.30;4.40;;;12.90;99.90;;;;;;6235522;22;20016;-83
2021/08/11 01:54:07;;;;;;;7.85;4.40;;;12.90;99.90;;;;;;6240345;22;20505;-83
2021/08/11 01:56:37;;;;;;;5.78;4.07;;;12.90;99.90;;;;;;6247433;22;20028;-83
2021/08/11 01:59:22;;;;;;;;;;;;;;;;;;;;;
2021/08/11 02:01:51;;;;;;;7.40;3.60;;;12.80;99.90;;;;;;6283233;22;20428;-82
2021/08/11 02:04:19;;;;;;;9.38;4.07;;;12.80;99.90;;;;;;6248088;22;20051;-83
2021/08/11 02:06:54;;;;;;;7.78;3.95;;;12.80;99.90;;;;;;6249838;22;20016;-83
2021/08/11 02:09:26;;;;;;;4.95;3.40;;;12.80;99.90;;;;;;6235791;22;20024;-82
2021/08/11 02:11:58;;;;;;;8.02;3.72;;;12.80;99.90;;;;;;6252882;22;20479;-83
2021/08/11 02:14:40;;;;;;;6.35;3.30;;;12.70;99.90;;;;;;6234611;22;20020;-81
2021/08/11 02:17:12;;;;;;;;;;;12.70;99.90;;;;;;6248579;22;20016;-82
2021/08/11 02:20:16;;;;;;;6.45;3.55;;;12.70;99.90;;;;;;6235693;22;19980;-83
2021/08/11 02:23:09;;;;;;;;;;;;;;;;;;;;;
2021/08/11 02:25:56;;;;;;;6.38;3.70;;;12.60;99.90;;;;;;6045455;23;20018;-82
2021/08/11 02:28:41;;;;;;;6.53;3.45;;;12.60;99.90;;;;;;6059672;23;20053;-82
2021/08/11 02:31:39;;;;;;;5.28;3.53;;;12.50;99.90;;;;;;6084210;23;20022;-83
2021/08/11 02:35:17;;;;;;;;;;;;;;;;;;;;;
2021/08/11 02:38:28;;;;;;;6.60;3.55;;;12.50;99.90;;;;;;5864284;24;20028;-83
2021/08/11 02:41:27;;;;;;;4.75;3.00;;;12.50;99.90;;;;;;5886021;24;20028;-82
2021/08/11 02:47:56;;;;;;;7.70;3.80;;;12.40;99.90;;;;;;5876085;24;20036;-83
2021/08/11 02:50:52;;;;;;;;;;;;;;;;;;;;;
2021/08/11 02:53:37;;;;;;;4.05;3.65;;;12.40;99.90;;;;;;5829448;24;20036;-83
2021/08/11 02:56:30;;;;;;;6.32;3.97;;;12.30;99.90;;;;;;5880026;24;20033;-83
2021/08/11 02:59:18;;;;;;;6.50;3.90;;;12.30;99.90;;;;;;5896489;24;20355;-83
2021/08/11 03:05:11;;;;;;;;;;;;;;;;;;;;;
2021/08/11 03:07:43;;;;;;;6.85;4.38;;;12.30;99.90;;;;;;5922509;24;20029;-82
2021/08/11 03:10:22;;;;;;;9.23;4.70;;;12.30;99.90;;;;;;5883660;24;20045;-80
2021/08/11 03:13:32;;;;;;;12.68;5.88;;;12.30;99.90;;;;;;5854449;24;20033;-83
2021/08/11 03:16:49;;;;;;;10.38;4.63;;;12.30;99.90;;;;;;5779605;24;20319;-80
2021/08/11 03:19:39;;;;;;;;;;;;;;;;;;;;;
2021/08/11 03:22:20;;;;;;;9.32;4.72;;;12.30;99.90;;;;;;5805726;24;20053;-83
2021/08/11 03:25:13;;;;;;;5.37;3.83;;;12.30;99.90;;;;;;5950120;23;20068;-79
2021/08/11 03:31:21;;;;;;;10.93;5.45;;;12.30;99.90;;;;;;5871558;24;20104;-83
2021/08/11 03:34:21;;;;;;;8.93;5.00;;;12.30;99.90;;;;;;5819207;24;20033;-82
2021/08/11 03:37:16;;;;;;;;;;;;;;;;;;;;;
2021/08/11 03:40:26;;;;;;;4.40;4.00;;;12.30;99.90;;;;;;5871868;24;20086;-81
2021/08/11 03:43:23;;;;;;;8.45;5.15;;;12.30;99.90;;;;;;5801431;24;20026;-83
2021/08/11 03:46:15;;;;;;;10.45;5.50;;;12.20;99.90;;;;;;5895291;24;20405;-83
2021/08/11 03:49:25;;;;;;;;;;;;;;;;;;;;;
2021/08/11 03:52:01;;;;;;;10.10;5.13;;;12.30;99.90;;;;;;5872338;23;20091;-83
2021/08/11 03:54:38;;;;;;;10.52;5.32;;;12.30;99.90;;;;;;5909828;23;20019;-81
2021/08/11 03:57:41;;;;;;;;;;;;;;;;;;;;;
2021/08/11 04:00:32;;;;;;;9.85;5.82;;;12.20;99.90;;;;;;5974251;23;20103;-82
2021/08/11 04:03:05;;;;;;;8.35;5.15;;;12.20;99.90;;;;;;6029218;23;20475;-83
2021/08/11 04:05:43;;;;;;;10.32;5.35;;;12.20;99.90;;;;;;6051364;23;20021;-82
2021/08/11 04:08:19;;;;;;;9.07;5.35;;;12.20;99.90;;;;;;6116135;23;20024;-82
2021/08/11 04:10:49;;;;;;;8.70;5.18;;;12.20;99.90;;;;;;6151860;23;20013;-83
2021/08/11 04:13:37;;;;;;;8.65;5.43;;;12.20;99.90;;;;;;6160119;23;20020;-83
2021/08/11 04:16:32;;;;;;;7.28;5.70;;;12.20;99.90;;;;;;6162639;23;20017;-82
2021/08/11 04:19:15;;;;;;;8.20;5.55;;;12.20;99.90;;;;;;6139200;23;20020;-83
2021/08/11 04:22:06;;;;;;;11.35;6.15;;;12.20;99.90;;;;;;6159640;23;20025;-83
2021/08/11 04:24:38;;;;;;;7.97;5.05;;;12.20;99.90;;;;;;6135268;23;20024;-83
2021/08/11 04:27:28;;;;;;;7.45;5.85;;;12.20;99.90;;;;;;6148683;23;20017;-83
2021/08/11 04:29:54;;;;;;;14.45;7.15;;;12.20;99.90;;;;;;6171433;23;20143;-82
2021/08/11 04:32:31;;;;;;;12.05;7.90;;;12.30;99.90;;;;;;6137729;23;20023;-82
2021/08/11 04:38:36;;;;;;;10.25;6.30;;;12.30;99.90;;;;;;5868161;24;20017;-82
2021/08/11 04:45:19;;;;;;;;;;;;;;;;;;;;;
2021/08/11 04:47:58;;;;;;;10.50;5.78;;;12.40;99.90;;;;;;5886946;24;20029;-83
2021/08/11 04:50:35;;;;;;;13.80;6.18;;;12.30;99.90;;;;;;5901185;24;20025;-82
2021/08/11 04:53:26;;;;;;;10.00;6.75;;;12.30;99.90;;;;;;5902185;24;20033;-82
2021/08/11 04:56:23;;;;;;;14.10;6.70;;;12.30;99.90;;;;;;5963996;23;20023;-83
2021/08/11 04:59:13;;;;;;;;;;;;;;;;;;;;;
2021/08/11 05:02:04;;;;;;;11.63;7.00;;;12.30;99.90;;;;;;6049058;23;20026;-83
2021/08/11 05:04:53;;;;;;;19.05;8.95;;;12.30;99.90;;;;;;6002637;23;20030;-81
2021/08/11 05:07:26;;;;;;;10.93;6.18;;;12.30;99.90;;;;;;6004209;23;20078;-82
2021/08/11 05:09:56;;;;;;;13.10;6.90;;;12.30;99.90;;;;;;6015852;23;20483;-82
2021/08/11 05:12:24;;;;;;;9.32;6.53;;;12.30;99.90;;;;;;6034680;23;20090;-83
2021/08/11 05:15:02;;;;;;;12.05;7.05;;;12.30;99.90;;;;;;6105547;23;20099;-83
2021/08/11 05:17:42;;;;;;;10.68;5.45;;;12.30;99.90;;;;;;6155563;23;20025;-83
2021/08/11 05:20:44;;;;;;;13.93;7.80;;;12.30;99.90;;;;;;6042889;23;20466;-81
2021/08/11 05:23:39;;;;;;;8.60;5.00;;;12.30;99.90;;;;;;6067155;23;20035;-82
2021/08/11 05:26:20;;;;;;;10.98;6.07;;;12.30;99.90;;;;;;6093291;23;20026;-80
2021/08/11 05:28:54;;;;;;;13.60;6.38;;;12.30;99.90;;;;;;6096374;23;20021;-82
2021/08/11 05:31:47;;;;;;;8.88;5.65;;;12.30;99.90;;;;;;5965898;23;20108;-83
2021/08/11 05:34:37;;;;;;;;;;;;;;;;;;;;;
2021/08/11 05:37:28;;;;;;;10.27;7.38;;;12.40;99.90;;;;;;5966619;23;20029;-83
2021/08/11 05:40:20;;;;;;;;;;;;;;;;;;;;;
2021/08/11 05:43:17;;;;;;;9.70;7.43;;;12.50;99.90;;;;;;6003972;23;20030;-83
2021/08/11 05:45:57;;;;;;;9.15;6.95;;;12.50;99.90;;;;;;5998202;23;20018;-80
2021/08/11 05:49:14;;;;;;;;;;;;;;;;;;;;;
2021/08/11 05:52:18;;;;;;;15.05;8.80;;;12.60;99.90;;;;;;6006454;23;20097;-83
2021/08/11 05:54:58;;;;;;;10.80;6.90;;;12.60;99.90;;;;;;6034277;23;20018;-82
2021/08/11 06:04:23;;;;;;;;;;;;;;;;;;;;;
2021/08/11 06:07:14;;;;;;;7.70;6.90;;;13.00;99.90;;;;;;5912039;23;20024;-82
2021/08/11 06:10:27;;;;;;;7.70;6.90;;;13.10;99.90;;;;;;5905426;24;20075;-81
2021/08/11 06:13:47;;;;;;;;;;;;;;;;;;;;;
2021/08/11 06:24:20;;;;;;;;;;;;;;;;;;;;;
2021/08/11 06:27:06;;;;;;;;;;;;;;;;;;;;;
2021/08/11 06:30:30;;;;;;;;;;;;;;;;;;;;;
2021/08/11 06:47:43;;;;;;;;;;;;;;;;;;;;;
2021/08/11 07:01:00;;;;;;;11.45;8.85;;;14.50;99.90;;;;;;5007209;28;20394;-83
2021/08/11 07:03:32;;;;;;;11.45;9.35;;;14.80;99.90;;;;;;4983359;28;20046;-83
2021/08/11 07:06:08;;;;;;;12.45;9.02;;;14.80;99.90;;;;;;5005712;28;20084;-83
2021/08/11 07:08:46;;;;;;;11.63;9.38;;;14.80;99.90;;;;;;4989198;28;20450;-82
2021/08/11 07:11:20;;;;;;;11.13;8.77;;;14.90;99.90;;;;;;4969017;28;20057;-84
2021/08/11 07:14:12;;;;;;;12.35;8.82;;;14.90;99.90;;;;;;4970682;28;20498;-80
2021/08/11 07:16:51;;;;;;;10.25;8.40;;;14.90;99.90;;;;;;4981731;28;20474;-83
2021/08/11 07:19:39;;;;;;;9.40;8.00;;;15.00;99.90;;;;;;4982325;28;20043;-83
2021/08/11 07:22:35;;;;;;;;;;;;;;;;;;;;;
2021/08/11 07:25:14;;;;;;;11.40;8.77;;;15.10;99.90;;;;;;4975819;28;20133;-82
2021/08/11 07:28:18;;;;;;;9.48;8.45;;;15.20;99.90;;;;;;5000115;28;20137;-83
2021/08/11 07:30:50;;;;;;;13.18;8.40;;;15.30;99.90;;;;;;4957026;28;20046;-82
2021/08/11 07:37:05;;;;;;;9.45;7.88;;;15.70;99.90;;;;;;4926525;28;20050;-80
2021/08/11 07:40:22;;;;;;;11.57;8.18;;;15.90;99.90;;;;;;4893600;29;20048;-83
2021/08/11 07:43:48;;;;;;;;;;;;;;;;;;;;;
2021/08/11 07:53:16;;;;;;;10.32;6.35;;;16.70;99.90;;;;;;4863704;29;20509;-81
2021/08/11 07:55:53;;;;;;;9.35;6.22;;;16.90;99.90;;;;;;4788512;29;20174;-84
2021/08/11 07:58:43;;;;;;;;;;;;;;;;;;;;;
2021/08/11 08:01:45;;;;;;;;;;;;;;;;;;;;;
2021/08/11 08:05:04;;;;;;;;;;;;;;;;;;;;;
2021/08/11 08:37:43;;;;;;;;;;;;;;;;;;;;;
2021/08/11 15:05:25;;;;;;;;;;;;;;;;;;;;;
2021/08/11 15:08:51;;;;;;;3.95;2.90;;;22.50;99.90;;;;;;5773360;24;20035;-82
2021/08/11 20:09:41;;;;;;;;;;;;;;;;;;;;;
2021/08/11 20:13:21;;;;;;;;;;;;;;;;;;;;;
2021/08/11 20:16:06;;;;;;;;;;;;;;;;;;;;;
2021/08/11 20:41:26;;;;;;;6.60;4.65;;;17.60;99.90;;;;;;5100924;27;20412;-84
2021/08/11 20:44:47;;;;;;;6.60;5.35;;;17.20;99.90;;;;;;5063775;27;20485;-83
2021/08/11 20:50:43;;;;;;;7.03;4.90;;;17.20;99.90;;;;;;5012088;28;20442;-81
2021/08/11 20:53:57;;;;;;;8.40;5.03;;;17.10;99.90;;;;;;4904096;28;20050;-82
2021/08/11 20:56:30;;;;;;;6.55;5.03;;;17.10;99.90;;;;;;4935140;28;20061;-84
2021/08/11 20:59:01;;;;;;;7.30;5.40;;;17.10;99.90;;;;;;4977748;28;20499;-83
2021/08/11 21:01:44;;;;;;;7.32;4.75;;;17.10;99.90;;;;;;4931081;28;20054;-81
2021/08/11 21:04:46;;;;;;;;;;;;;;;;;;;;;
2021/08/11 21:07:25;;;;;;;6.60;4.72;;;17.10;99.90;;;;;;4964535;28;20443;-81
2021/08/11 21:10:30;;;;;;;6.33;4.50;;;17.00;99.90;;;;;;5012949;28;20417;-83
2021/08/11 21:13:30;;;;;;;5.00;4.15;;;17.00;99.90;;;;;;5057944;28;20325;-83
2021/08/11 21:16:03;;;;;;;6.93;4.95;;;17.00;99.90;;;;;;5087904;28;20051;-83
2021/08/11 21:19:07;;;;;;;;;;;;;;;;;;;;;
2021/08/11 21:22:17;;;;;;;5.60;4.68;;;16.90;99.90;;;;;;4940344;28;20057;-84
2021/08/11 21:25:09;;;;;;;5.90;4.35;;;16.90;99.90;;;;;;4983841;28;20042;-80
2021/08/11 21:28:05;;;;;;;5.53;4.87;;;16.90;99.90;;;;;;4963761;28;20053;-83
2021/08/11 21:30:39;;;;;;;5.37;4.87;;;16.80;99.90;;;;;;4976772;28;20495;-83
2021/08/11 21:33:20;;;;;;;5.95;5.35;;;16.80;99.90;;;;;;4960531;28;20050;-83
2021/08/11 21:36:04;;;;;;;7.53;5.18;;;16.80;99.90;;;;;;4982682;28;20054;-80
2021/08/11 21:38:38;;;;;;;7.90;5.87;;;16.70;99.90;;;;;;4980852;28;20061;-82
2021/08/11 21:41:34;;;;;;;6.80;5.30;;;16.70;99.90;;;;;;4975881;28;20536;-83
2021/08/11 21:44:11;;;;;;;9.40;6.10;;;16.70;99.90;;;;;;4971177;28;20042;-84
2021/08/11 21:47:04;;;;;;;6.28;5.68;;;16.60;99.90;;;;;;4969096;28;20042;-83
2021/08/11 21:50:12;;;;;;;8.20;5.90;;;16.60;99.90;;;;;;4973177;28;20203;-84
2021/08/11 21:53:06;;;;;;;;;;;;;;;;;;;;;
2021/08/11 21:56:19;;;;;;;8.65;7.53;;;16.50;99.90;;;;;;4942614;28;20049;-83
2021/08/11 21:59:08;;;;;;;9.90;7.40;;;16.50;99.90;;;;;;4955036;28;20478;-83
2021/08/11 22:01:45;;;;;;;10.07;8.13;;;16.40;99.90;;;;;;4955557;28;20128;-80
2021/08/11 22:04:49;;;;;;;;;;;;;;;;;;;;;
2021/08/11 22:07:42;;;;;;;9.52;7.32;;;16.30;99.90;;;;;;4997271;28;20052;-83
2021/08/11 22:10:39;;;;;;;8.52;7.65;;;16.20;99.90;;;;;;5017146;28;20500;-83
2021/08/11 22:13:13;;;;;;;8.77;6.25;;;16.20;99.90;;;;;;4977458;28;20048;-83
2021/08/11 22:15:50;;;;;;;8.52;5.70;;;16.20;99.90;;;;;;5063927;28;20124;-84
2021/08/11 22:18:39;;;;;;;8.80;5.22;;;16.20;99.90;;;;;;5023055;28;20527;-84
2021/08/11 22:21:39;;;;;;;7.43;5.72;;;16.20;99.90;;;;;;5049530;28;20058;-83
2021/08/11 22:24:39;;;;;;;8.48;5.00;;;16.20;99.90;;;;;;5066646;28;20045;-83
2021/08/11 22:27:21;;;;;;;6.47;4.97;;;16.10;99.90;;;;;;5010401;28;20180;-83
2021/08/11 22:30:03;;;;;;;6.25;5.07;;;16.10;99.90;;;;;;5022768;28;20041;-83
2021/08/11 22:33:24;;;;;;;;;;;;;;;;;;;;;
2021/08/11 22:36:34;;;;;;;8.20;6.22;;;16.10;99.90;;;;;;4950055;28;20120;-83
2021/08/11 22:39:28;;;;;;;7.60;4.88;;;16.00;99.90;;;;;;4957182;28;20121;-83
2021/08/11 22:42:03;;;;;;;5.78;5.18;;;16.00;99.90;;;;;;4972316;28;20050;-83
2021/08/11 22:45:26;;;;;;;;;;;;;;;;;;;;;
2021/08/11 22:58:56;;;;;;;7.70;6.20;;;16.00;99.90;;;;;;5953125;22;5670077;-83
2021/08/11 23:02:32;;;;;;;7.05;5.72;;;16.10;99.90;;;;;;6166524;23;20033;-83
2021/08/11 23:13:01;;;;;;;;;;;;;;;;;;;;;
2021/08/11 23:18:53;;;;;;;9.93;7.40;;;15.90;99.90;;;;;;5864229;24;20108;-82
2021/08/11 23:21:52;;;;;;;11.65;9.15;;;15.90;99.90;;;;;;5890745;24;20773;-80
2021/08/11 23:24:45;;;;;;;13.27;10.52;;;15.90;99.90;;;;;;5831657;24;20498;-83
2021/08/11 23:27:54;;;;;;;;;;;;;;;;;;;;;
2021/08/11 23:30:35;;;;;;;;;;;15.90;99.90;;;;;;5791218;24;20467;-84
2021/08/11 23:33:28;;;;;;;16.83;11.45;;;15.90;99.90;;;;;;5821401;24;19974;-83
2021/08/11 23:40:18;;;;;;;10.70;9.13;;;15.90;99.90;;;;;;5802646;24;20021;-83
2021/08/11 23:43:24;;;;;;;9.68;7.90;;;15.90;99.90;;;;;;5806415;24;20143;-81
2021/08/11 23:50:37;;;;;;;7.82;7.03;;;15.90;99.90;;;;;;5784764;24;20125;-82
2021/08/11 23:53:24;;;;;;;8.60;7.80;;;15.80;99.90;;;;;;5800202;24;20341;-79
2021/08/11 23:56:23;;;;;;;9.77;8.10;;;15.80;99.90;;;;;;5814841;24;20029;-80
2021/08/11 23:59:20;;;;;;;9.93;8.15;;;15.70;99.90;;;;;;5760611;24;20034;-81
